createdAt,value
2022-11-19T00:02:06.814Z,6.40
2022-11-19T00:04:34.918Z,5.50
2022-11-19T00:07:04.922Z,5.70
2022-11-19T00:09:33.172Z,5.20
2022-11-19T00:12:19.119Z,5.10
2022-11-19T00:14:48.771Z,5.10
2022-11-19T00:17:16.857Z,4.90
2022-11-19T00:19:44.971Z,5.00
2022-11-19T00:22:13.051Z,5.00
2022-11-19T00:24:41.113Z,5.00
2022-11-19T00:27:09.140Z,5.00
2022-11-19T00:29:37.305Z,4.80
2022-11-19T00:32:06.904Z,4.80
2022-11-19T00:34:34.959Z,4.80
2022-11-19T00:37:03.001Z,4.80
2022-11-19T00:39:31.104Z,4.70
2022-11-19T00:41:59.270Z,4.60
2022-11-19T00:44:28.657Z,4.60
2022-11-19T00:46:59.493Z,4.40
2022-11-19T00:49:28.953Z,4.40
2022-11-19T00:51:57.065Z,4.30
2022-11-19T00:54:25.109Z,4.20
2022-11-19T00:56:53.208Z,4.50
2022-11-19T00:59:21.536Z,4.00
2022-11-19T01:01:49.724Z,4.00
2022-11-19T01:04:18.004Z,3.90
2022-11-19T01:06:47.444Z,3.80
2022-11-19T01:09:15.581Z,3.90
2022-11-19T01:11:43.756Z,3.90
2022-11-19T01:14:11.860Z,3.80
2022-11-19T01:16:41.539Z,3.80
2022-11-19T01:19:11.669Z,3.70
2022-11-19T01:21:39.799Z,3.60
2022-11-19T01:24:11.774Z,3.50
2022-11-19T01:26:44.438Z,3.50
2022-11-19T01:29:14.224Z,3.50
2022-11-19T01:31:42.306Z,3.50
2022-11-19T01:34:10.381Z,3.50
2022-11-19T01:36:38.451Z,3.40
2022-11-19T01:39:06.619Z,3.30
2022-11-19T01:41:36.547Z,3.20
2022-11-19T01:44:06.561Z,3.20
2022-11-19T01:46:37.053Z,3.10
2022-11-19T01:49:08.337Z,3.20
2022-11-19T01:51:38.811Z,3.10
2022-11-19T01:54:13.029Z,3.10
2022-11-19T01:56:42.789Z,3.00
2022-11-19T01:59:16.387Z,3.00
2022-11-19T02:01:45.708Z,3.00
2022-11-19T02:04:16.290Z,3.00
2022-11-19T02:06:45.984Z,3.10
2022-11-19T02:09:14.649Z,3.10
2022-11-19T02:12:03.925Z,3.10
2022-11-19T02:14:59.843Z,3.00
2022-11-19T02:17:47.864Z,3.00
2022-11-19T02:20:41.770Z,2.90
2022-11-19T02:23:53.086Z,2.90
2022-11-19T02:26:51.472Z,2.80
2022-11-19T02:29:49.607Z,2.80
2022-11-19T02:32:25.285Z,2.90
2022-11-19T02:34:58.899Z,2.80
2022-11-19T02:37:31.573Z,2.80
2022-11-19T02:40:05.060Z,2.70
2022-11-19T02:42:38.320Z,2.60
2022-11-19T02:45:30.755Z,2.50
2022-11-19T02:48:06.215Z,2.50
2022-11-19T02:50:37.382Z,2.40
2022-11-19T02:53:05.731Z,2.40
2022-11-19T02:55:33.815Z,2.40
2022-11-19T02:58:07.989Z,2.30
2022-11-19T03:01:02.570Z,2.20
2022-11-19T03:03:50.853Z,2.10
2022-11-19T03:06:21.736Z,2.10
2022-11-19T03:08:49.992Z,2.00
2022-11-19T03:11:22.567Z,2.00
2022-11-19T03:14:14.345Z,2.00
2022-11-19T03:16:50.331Z,1.90
2022-11-19T03:19:38.680Z,1.90
2022-11-19T03:22:13.738Z,2.00
2022-11-19T03:24:45.302Z,2.00
2022-11-19T03:27:19.492Z,2.00
2022-11-19T03:29:50.557Z,2.00
2022-11-19T03:32:22.484Z,2.00
2022-11-19T03:34:55.173Z,1.90
2022-11-19T03:37:25.252Z,1.80
2022-11-19T03:39:57.529Z,1.80
2022-11-19T03:42:27.980Z,1.70
2022-11-19T03:45:00.924Z,1.70
2022-11-19T03:47:32.094Z,1.60
2022-11-19T03:50:06.271Z,1.60
2022-11-19T03:52:34.448Z,1.60
2022-11-19T03:55:02.681Z,1.50
2022-11-19T03:57:30.709Z,1.50
2022-11-19T03:59:58.708Z,1.50
2022-11-19T04:02:26.738Z,1.40
2022-11-19T04:04:54.747Z,1.30
2022-11-19T04:07:25.046Z,1.40
2022-11-19T04:09:53.107Z,1.40
2022-11-19T04:12:23.213Z,1.40
2022-11-19T04:14:52.099Z,1.40
2022-11-19T04:17:20.785Z,1.40
2022-11-19T04:19:49.039Z,1.40
2022-11-19T04:22:17.549Z,1.40
2022-11-19T04:24:46.995Z,1.40
2022-11-19T04:27:15.014Z,1.40
2022-11-19T04:29:43.000Z,1.40
2022-11-19T04:32:11.078Z,1.40
2022-11-19T04:34:39.094Z,1.50
2022-11-19T04:37:07.107Z,1.50
2022-11-19T04:39:35.127Z,1.40
2022-11-19T04:42:04.640Z,1.40
2022-11-19T04:44:32.912Z,1.50
2022-11-19T04:47:01.072Z,1.30
2022-11-19T04:49:29.064Z,1.30
2022-11-19T04:51:57.053Z,1.30
2022-11-19T04:54:25.077Z,1.30
2022-11-19T04:56:53.216Z,1.30
2022-11-19T04:59:22.619Z,1.30
2022-11-19T05:01:50.802Z,1.20
2022-11-19T05:04:18.829Z,1.10
2022-11-19T05:06:46.936Z,1.10
2022-11-19T05:09:15.624Z,1.10
2022-11-19T05:11:43.630Z,1.10
2022-11-19T05:14:11.742Z,1.10
2022-11-19T05:16:41.102Z,1.10
2022-11-19T05:19:09.505Z,1.10
2022-11-19T05:21:37.592Z,1.20
2022-11-19T05:24:06.174Z,1.20
2022-11-19T05:26:34.308Z,1.10
2022-11-19T05:29:03.147Z,1.10
2022-11-19T05:31:31.608Z,1.00
2022-11-19T05:34:00.969Z,1.00
2022-11-19T05:36:28.990Z,1.00
2022-11-19T05:38:56.998Z,0.90
2022-11-19T05:41:25.117Z,0.90
2022-11-19T05:43:53.177Z,0.90
2022-11-19T05:46:21.276Z,1.00
2022-11-19T05:48:49.599Z,1.00
2022-11-19T05:51:19.085Z,1.10
2022-11-19T05:53:47.272Z,1.00
2022-11-19T05:56:15.288Z,0.90
2022-11-19T05:58:43.302Z,0.90
2022-11-19T06:01:11.377Z,0.90
2022-11-19T06:03:40.524Z,1.00
2022-11-19T06:06:09.266Z,0.90
2022-11-19T06:08:38.621Z,1.00
2022-11-19T06:11:06.839Z,1.00
2022-11-19T06:13:34.824Z,1.00
2022-11-19T06:16:03.802Z,1.00
2022-11-19T06:18:31.789Z,1.00
2022-11-19T06:20:59.805Z,1.00
2022-11-19T06:23:27.893Z,1.00
2022-11-19T06:25:57.571Z,1.00
2022-11-19T06:28:25.651Z,1.00
2022-11-19T06:30:53.924Z,1.00
2022-11-19T06:33:22.041Z,1.00
2022-11-19T06:35:50.296Z,1.00
2022-11-19T06:38:18.551Z,1.10
2022-11-19T06:40:47.005Z,1.00
2022-11-19T06:43:16.388Z,0.90
2022-11-19T06:45:44.396Z,0.90
2022-11-19T06:48:12.380Z,0.80
2022-11-19T06:50:41.213Z,0.90
2022-11-19T06:53:09.383Z,1.00
2022-11-19T06:55:37.446Z,1.00
2022-11-19T06:58:06.189Z,0.90
2022-11-19T07:00:38.553Z,0.90
2022-11-19T07:03:06.554Z,0.90
2022-11-19T07:05:34.714Z,0.90
2022-11-19T07:08:03.426Z,0.90
2022-11-19T07:10:33.339Z,0.90
2022-11-19T07:13:01.611Z,0.90
2022-11-19T07:15:29.634Z,0.90
2022-11-19T07:17:59.002Z,0.90
2022-11-19T07:20:27.050Z,0.80
2022-11-19T07:22:59.081Z,0.80
2022-11-19T07:25:28.089Z,0.80
2022-11-19T07:27:56.117Z,0.80
2022-11-19T07:30:24.089Z,0.90
2022-11-19T07:32:54.516Z,0.80
2022-11-19T07:35:23.843Z,0.90
2022-11-19T07:37:51.890Z,0.90
2022-11-19T07:40:20.109Z,1.00
2022-11-19T07:42:49.737Z,1.00
2022-11-19T07:45:18.936Z,1.00
2022-11-19T07:47:46.912Z,1.00
2022-11-19T07:50:14.920Z,1.00
2022-11-19T07:52:44.329Z,1.10
2022-11-19T07:55:12.927Z,1.10
2022-11-19T07:57:40.912Z,1.10
2022-11-19T08:00:09.933Z,1.20
2022-11-19T08:02:40.983Z,1.10
2022-11-19T08:05:09.679Z,1.20
2022-11-19T08:07:38.673Z,1.20
2022-11-19T08:10:09.665Z,1.20
2022-11-19T08:12:37.877Z,1.30
2022-11-19T08:15:06.540Z,1.30
2022-11-19T08:17:51.940Z,1.30
2022-11-19T08:20:20.047Z,1.30
2022-11-19T08:22:48.042Z,1.20
2022-11-19T08:25:17.614Z,1.20
2022-11-19T08:27:45.633Z,1.20
2022-11-19T08:30:14.825Z,1.20
2022-11-19T08:32:42.894Z,1.10
2022-11-19T08:35:11.032Z,1.20
2022-11-19T08:37:39.034Z,1.20
2022-11-19T08:40:08.182Z,1.30
2022-11-19T08:42:55.071Z,1.30
2022-11-19T08:45:23.101Z,1.30
2022-11-19T08:47:51.424Z,1.30
2022-11-19T08:50:19.752Z,1.40
2022-11-19T08:52:47.856Z,1.40
2022-11-19T08:55:15.920Z,1.40
2022-11-19T08:57:45.385Z,1.40
2022-11-19T09:00:14.927Z,1.40
2022-11-19T09:02:42.935Z,1.30
2022-11-19T09:05:14.566Z,1.20
2022-11-19T09:07:43.169Z,1.20
2022-11-19T09:10:11.652Z,1.20
2022-11-19T09:12:39.783Z,1.20
2022-11-19T09:15:10.380Z,1.20
2022-11-19T09:17:42.491Z,1.30
2022-11-19T09:20:14.958Z,1.30
2022-11-19T09:22:51.260Z,1.30
2022-11-19T09:25:19.373Z,1.30
2022-11-19T09:27:47.411Z,1.40
2022-11-19T09:30:17.158Z,1.40
2022-11-19T09:32:45.670Z,1.30
2022-11-19T09:35:13.855Z,1.30
2022-11-19T09:37:42.010Z,1.30
2022-11-19T09:40:16.937Z,1.20
2022-11-19T09:42:57.514Z,1.20
2022-11-19T09:45:38.505Z,1.40
2022-11-19T09:48:18.284Z,1.40
2022-11-19T09:50:53.890Z,1.40
2022-11-19T09:53:23.968Z,1.50
2022-11-19T09:55:54.838Z,1.50
2022-11-19T09:58:27.247Z,1.50
2022-11-19T10:00:57.467Z,1.50
2022-11-19T10:03:32.764Z,1.60
2022-11-19T10:06:20.603Z,1.60
2022-11-19T10:09:08.679Z,1.70
2022-11-19T10:11:47.978Z,1.60
2022-11-19T10:14:36.579Z,1.60
2022-11-19T10:17:13.663Z,1.80
2022-11-19T10:19:54.117Z,1.70
2022-11-19T10:22:25.651Z,1.60
2022-11-19T10:25:00.510Z,1.70
2022-11-19T10:27:36.489Z,1.80
2022-11-19T10:30:14.318Z,1.70
2022-11-19T10:32:47.560Z,1.70
2022-11-19T10:35:19.454Z,1.70
2022-11-19T10:37:55.732Z,1.90
2022-11-19T10:40:26.900Z,1.60
2022-11-19T10:42:58.984Z,1.60
2022-11-19T10:45:30.031Z,1.60
2022-11-19T10:48:09.304Z,1.70
2022-11-19T10:50:38.050Z,1.70
2022-11-19T10:53:14.977Z,1.60
2022-11-19T10:55:47.817Z,1.70
2022-11-19T10:58:23.937Z,1.70
2022-11-19T11:00:54.639Z,1.70
2022-11-19T11:03:26.551Z,1.80
2022-11-19T11:06:01.998Z,1.80
2022-11-19T11:08:30.433Z,1.70
2022-11-19T11:10:58.679Z,1.60
2022-11-19T11:13:58.332Z,1.60
2022-11-19T11:16:31.540Z,1.70
2022-11-19T11:19:03.530Z,2.30
2022-11-19T11:21:36.176Z,1.80
2022-11-19T11:24:06.041Z,1.90
2022-11-19T11:26:36.651Z,2.10
2022-11-19T11:29:08.715Z,2.10
2022-11-19T11:31:40.224Z,1.90
2022-11-19T11:34:28.606Z,1.90
2022-11-19T11:36:58.148Z,2.00
2022-11-19T11:39:29.559Z,2.00
2022-11-19T11:42:07.362Z,2.00
2022-11-19T11:44:38.395Z,2.00
2022-11-19T11:47:13.947Z,2.10
2022-11-19T11:49:45.642Z,2.20
2022-11-19T11:52:26.450Z,2.30
2022-11-19T11:54:59.597Z,2.30
2022-11-19T11:57:30.231Z,2.20
2022-11-19T11:59:58.967Z,2.10
2022-11-19T12:02:30.763Z,2.20
2022-11-19T12:05:03.500Z,2.10
2022-11-19T12:08:05.739Z,2.10
2022-11-19T12:10:45.984Z,2.20
2022-11-19T12:13:42.694Z,2.30
2022-11-19T12:16:19.166Z,2.30
2022-11-19T12:18:57.884Z,2.30
2022-11-19T12:21:37.783Z,2.40
2022-11-19T12:24:23.890Z,2.40
2022-11-19T12:27:05.012Z,2.60
2022-11-19T12:29:41.976Z,2.60
2022-11-19T12:32:27.808Z,2.50
2022-11-19T12:35:12.384Z,2.40
2022-11-19T12:37:53.997Z,2.30
2022-11-19T12:40:41.863Z,2.40
2022-11-19T12:43:26.981Z,2.20
2022-11-19T12:46:05.212Z,2.20
2022-11-19T12:48:52.478Z,2.20
2022-11-19T12:51:34.935Z,2.10
2022-11-19T12:54:33.207Z,2.10
2022-11-19T12:57:13.956Z,2.00
2022-11-19T13:00:03.552Z,2.00
2022-11-19T13:02:37.001Z,2.10
2022-11-19T13:05:12.617Z,2.00
2022-11-19T13:07:47.132Z,2.10
2022-11-19T13:10:19.942Z,2.10
2022-11-19T13:12:51.022Z,2.20
2022-11-19T13:15:23.734Z,2.20
2022-11-19T13:17:54.584Z,2.30
2022-11-19T13:20:26.829Z,2.40
2022-11-19T13:22:58.927Z,2.40
2022-11-19T13:25:32.034Z,2.40
2022-11-19T13:28:02.869Z,2.30
2022-11-19T13:30:33.530Z,2.20
2022-11-19T13:33:07.796Z,2.20
2022-11-19T13:35:43.936Z,2.10
2022-11-19T13:38:19.330Z,2.10
2022-11-19T13:40:56.269Z,2.10
2022-11-19T13:43:41.903Z,2.20
2022-11-19T13:46:22.541Z,2.20
2022-11-19T13:48:57.386Z,2.20
2022-11-19T13:51:30.168Z,2.20
2022-11-19T13:54:03.350Z,2.20
2022-11-19T13:56:45.912Z,2.20
2022-11-19T13:59:34.972Z,2.30
2022-11-19T14:02:26.631Z,2.30
2022-11-19T14:05:28.171Z,2.20
2022-11-19T14:08:07.585Z,2.20
2022-11-19T14:10:41.032Z,2.20
2022-11-19T14:13:38.998Z,2.20
2022-11-19T14:16:36.918Z,2.20
2022-11-19T14:19:23.845Z,2.10
2022-11-19T14:22:11.833Z,2.10
2022-11-19T14:25:17.048Z,2.00
2022-11-19T14:27:45.435Z,2.10
2022-11-19T14:30:20.523Z,2.10
2022-11-19T14:32:53.038Z,2.10
2022-11-19T14:35:35.495Z,2.00
2022-11-19T14:38:27.036Z,2.00
2022-11-19T14:41:11.029Z,2.00
2022-11-19T14:44:10.638Z,2.00
2022-11-19T14:46:42.794Z,1.90
2022-11-19T14:49:30.278Z,1.90
2022-11-19T14:51:59.019Z,1.90
2022-11-19T14:54:40.491Z,1.90
2022-11-19T14:57:27.357Z,1.90
2022-11-19T14:59:59.673Z,1.70
2022-11-19T15:02:32.969Z,1.70
2022-11-19T15:05:08.717Z,1.70
2022-11-19T15:07:41.351Z,1.80
2022-11-19T15:10:45.254Z,1.80
2022-11-19T15:13:25.611Z,1.90
2022-11-19T15:15:57.385Z,1.80
2022-11-19T15:19:11.178Z,1.70
2022-11-19T15:22:27.380Z,1.80
2022-11-19T15:25:12.514Z,1.70
2022-11-19T15:27:59.293Z,1.70
2022-11-19T15:30:40.930Z,1.60
2022-11-19T15:33:42.008Z,1.60
2022-11-19T15:36:34.423Z,1.70
2022-11-19T15:39:06.977Z,1.60
2022-11-19T15:41:40.056Z,1.50
2022-11-19T15:44:14.350Z,1.50
2022-11-19T15:46:49.193Z,1.40
2022-11-19T15:49:22.344Z,1.40
2022-11-19T15:52:07.189Z,1.50
2022-11-19T15:54:36.540Z,1.50
2022-11-19T15:57:07.584Z,1.40
2022-11-19T15:59:39.018Z,1.40
2022-11-19T16:02:18.769Z,1.40
2022-11-19T16:04:49.334Z,1.40
2022-11-19T16:07:25.021Z,1.40
2022-11-19T16:09:54.306Z,1.50
2022-11-19T16:12:41.762Z,1.50
2022-11-19T16:15:36.592Z,1.50
2022-11-19T16:18:05.151Z,1.50
2022-11-19T16:20:35.095Z,1.40
2022-11-19T16:23:07.040Z,1.50
2022-11-19T16:25:37.516Z,1.50
2022-11-19T16:28:08.855Z,1.50
2022-11-19T16:30:46.216Z,1.50
2022-11-19T16:33:18.540Z,1.40
2022-11-19T16:35:52.392Z,1.50
2022-11-19T16:38:27.686Z,1.50
2022-11-19T16:41:14.278Z,1.50
2022-11-19T16:43:43.673Z,1.50
2022-11-19T16:46:15.713Z,1.50
2022-11-19T16:49:02.490Z,1.50
2022-11-19T16:51:41.038Z,1.40
2022-11-19T16:54:11.855Z,1.40
2022-11-19T16:56:45.359Z,1.40
2022-11-19T16:59:23.704Z,1.30
2022-11-19T17:01:57.504Z,1.30
2022-11-19T17:04:28.403Z,1.30
2022-11-19T17:06:57.745Z,1.30
2022-11-19T17:09:41.445Z,1.20
2022-11-19T17:12:25.036Z,1.20
2022-11-19T17:14:55.908Z,1.20
2022-11-19T17:17:40.309Z,1.30
2022-11-19T17:21:00.220Z,1.30
2022-11-19T17:23:30.810Z,1.20
2022-11-19T17:26:03.488Z,1.20
2022-11-19T17:28:40.709Z,1.10
2022-11-19T17:31:16.900Z,1.10
2022-11-19T17:34:09.586Z,1.10
2022-11-19T17:36:38.952Z,1.00
2022-11-19T17:39:10.986Z,0.90
2022-11-19T17:41:58.597Z,0.90
2022-11-19T17:44:39.102Z,0.90
2022-11-19T17:47:24.231Z,0.90
2022-11-19T17:49:53.202Z,0.90
2022-11-19T17:52:24.540Z,0.80
2022-11-19T17:54:54.694Z,0.80
2022-11-19T17:57:24.208Z,0.80
2022-11-19T17:59:52.204Z,0.80
2022-11-19T18:02:22.073Z,0.80
2022-11-19T18:04:50.493Z,0.80
2022-11-19T18:07:18.617Z,0.80
2022-11-19T18:09:46.784Z,0.70
2022-11-19T18:12:17.892Z,0.80
2022-11-19T18:14:47.699Z,0.70
2022-11-19T18:17:16.504Z,0.70
2022-11-19T18:19:44.564Z,0.60
2022-11-19T18:22:19.039Z,0.70
2022-11-19T18:24:48.014Z,0.70
2022-11-19T18:27:16.390Z,0.60
2022-11-19T18:29:44.425Z,0.70
2022-11-19T18:32:16.643Z,0.60
2022-11-19T18:34:45.384Z,0.60
2022-11-19T18:37:13.794Z,0.70
2022-11-19T18:39:41.789Z,0.60
2022-11-19T18:42:11.746Z,0.60
2022-11-19T18:44:39.197Z,0.60
2022-11-19T18:47:10.183Z,0.70
2022-11-19T18:49:39.926Z,0.60
2022-11-19T18:52:09.599Z,0.70
2022-11-19T18:54:37.890Z,0.70
2022-11-19T18:57:06.003Z,0.70
2022-11-19T18:59:34.104Z,1.10
2022-11-19T19:02:02.261Z,0.70
2022-11-19T19:04:30.362Z,0.80
2022-11-19T19:06:59.776Z,0.70
2022-11-19T19:09:27.904Z,0.70
2022-11-19T19:12:14.230Z,0.70
2022-11-19T19:14:42.597Z,0.70
2022-11-19T19:17:11.488Z,0.70
2022-11-19T19:19:39.823Z,0.70
2022-11-19T19:22:09.810Z,0.70
2022-11-19T19:24:38.035Z,0.70
2022-11-19T19:27:06.527Z,1.10
2022-11-19T19:29:34.538Z,0.70
2022-11-19T19:32:02.615Z,0.70
2022-11-19T19:34:30.884Z,0.70
2022-11-19T19:36:58.928Z,0.70
2022-11-19T19:39:28.362Z,0.70
2022-11-19T19:41:56.546Z,0.70
2022-11-19T19:44:24.663Z,0.70
2022-11-19T19:46:52.686Z,0.70
2022-11-19T19:49:21.157Z,0.70
2022-11-19T19:51:50.864Z,0.60
2022-11-19T19:54:18.940Z,0.50
2022-11-19T19:56:48.504Z,0.50
2022-11-19T19:59:16.831Z,0.50
2022-11-19T20:01:47.325Z,0.40
2022-11-19T20:04:15.679Z,0.40
2022-11-19T20:06:47.251Z,0.50
2022-11-19T20:09:15.567Z,0.50
2022-11-19T20:11:43.555Z,0.50
2022-11-19T20:14:13.506Z,0.50
2022-11-19T20:16:42.740Z,0.40
2022-11-19T20:19:16.375Z,0.40
2022-11-19T20:21:44.517Z,0.40
2022-11-19T20:24:13.671Z,0.40
2022-11-19T20:26:42.965Z,0.40
2022-11-19T20:29:14.120Z,0.40
2022-11-19T20:31:46.209Z,0.40
2022-11-19T20:34:14.468Z,0.40
2022-11-19T20:36:44.008Z,0.40
2022-11-19T20:39:12.570Z,0.40
2022-11-19T20:41:58.010Z,0.50
2022-11-19T20:44:27.530Z,0.50
2022-11-19T20:47:08.299Z,0.40
2022-11-19T20:49:38.082Z,0.40
2022-11-19T20:52:07.400Z,0.20
2022-11-19T20:54:35.608Z,0.50
2022-11-19T20:57:03.808Z,0.50
2022-11-19T20:59:33.134Z,0.30
2022-11-19T21:02:01.323Z,0.30
2022-11-19T21:04:31.337Z,0.30
2022-11-19T21:06:59.494Z,0.30
2022-11-19T21:09:27.661Z,0.40
2022-11-19T21:11:55.707Z,0.40
2022-11-19T21:14:23.736Z,0.30
2022-11-19T21:16:53.117Z,0.30
2022-11-19T21:19:21.354Z,0.40
2022-11-19T21:21:49.617Z,0.30
2022-11-19T21:24:17.616Z,0.30
2022-11-19T21:26:45.672Z,0.30
2022-11-19T21:29:13.750Z,0.30
2022-11-19T21:31:44.381Z,0.30
2022-11-19T21:34:15.149Z,0.30
2022-11-19T21:36:44.482Z,0.30
2022-11-19T21:39:14.044Z,0.30
2022-11-19T21:41:42.145Z,0.30
2022-11-19T21:44:10.311Z,0.30
2022-11-19T21:46:38.541Z,0.30
2022-11-19T21:49:06.597Z,0.30
2022-11-19T21:51:35.998Z,0.30
2022-11-19T21:54:04.014Z,0.30
2022-11-19T21:56:37.081Z,0.30
2022-11-19T21:59:07.112Z,0.30
2022-11-19T22:01:35.471Z,0.20
2022-11-19T22:04:03.685Z,0.20
2022-11-19T22:06:32.681Z,0.20
2022-11-19T22:09:01.999Z,0.10
2022-11-19T22:11:30.305Z,0.10
2022-11-19T22:14:00.171Z,0.10
2022-11-19T22:16:28.735Z,0.10
2022-11-19T22:18:56.749Z,0.10
2022-11-19T22:21:25.033Z,0.00
2022-11-19T22:23:53.560Z,-0.10
2022-11-19T22:26:22.970Z,-0.10
2022-11-19T22:28:51.032Z,-0.10
2022-11-19T22:31:19.098Z,-0.10
2022-11-19T22:33:49.648Z,-0.10
2022-11-19T22:36:18.349Z,-0.10
2022-11-19T22:38:46.486Z,-0.10
2022-11-19T22:41:16.622Z,-0.10
2022-11-19T22:43:46.218Z,0.00
2022-11-19T22:46:15.231Z,0.00
2022-11-19T22:48:43.523Z,-0.10
2022-11-19T22:51:14.743Z,-0.10
2022-11-19T22:53:43.778Z,-0.10
2022-11-19T22:56:13.995Z,-0.20
2022-11-19T22:58:42.569Z,-0.20
2022-11-19T23:01:17.801Z,-0.20
2022-11-19T23:03:46.687Z,-0.20
2022-11-19T23:06:15.414Z,-0.10
2022-11-19T23:08:43.697Z,-0.10
2022-11-19T23:11:11.791Z,-0.10
2022-11-19T23:13:40.568Z,-0.10
2022-11-19T23:16:10.969Z,-0.10
2022-11-19T23:18:42.212Z,-0.10
2022-11-19T23:21:12.012Z,-0.10
2022-11-19T23:23:40.641Z,-0.20
2022-11-19T23:26:11.114Z,-0.20
2022-11-19T23:28:40.095Z,-0.20
2022-11-19T23:31:10.352Z,-0.20
2022-11-19T23:33:39.850Z,-0.30
2022-11-19T23:36:11.250Z,-0.30
2022-11-19T23:38:40.180Z,-0.30
2022-11-19T23:41:09.805Z,-0.30
2022-11-19T23:43:38.566Z,-0.30
2022-11-19T23:46:08.584Z,-0.30
2022-11-19T23:48:37.916Z,-0.20
2022-11-19T23:51:09.328Z,-0.20
2022-11-19T23:53:37.517Z,-0.10
2022-11-19T23:56:06.890Z,-0.10
2022-11-19T23:58:36.136Z,-0.10
